createdAt,value
2018-04-22T00:02:09.462Z,20.33
2018-04-22T00:04:37.083Z,21.97
2018-04-22T00:07:04.690Z,24.73
2018-04-22T00:09:33.075Z,22.07
2018-04-22T00:12:01.455Z,24.63
2018-04-22T00:14:29.828Z,26.40
2018-04-22T00:16:58.202Z,23.37
2018-04-22T00:19:26.562Z,21.87
2018-04-22T00:21:54.158Z,23.37
2018-04-22T00:24:21.759Z,23.13
2018-04-22T00:26:49.382Z,20.50
2018-04-22T00:29:16.982Z,17.70
2018-04-22T00:31:44.590Z,16.30
2018-04-22T00:34:12.951Z,20.37
2018-04-22T00:36:40.555Z,14.60
2018-04-22T00:39:08.156Z,26.60
2018-04-22T00:41:35.750Z,25.83
2018-04-22T00:44:04.246Z,21.50
2018-04-22T00:46:32.611Z,28.17
2018-04-22T00:49:00.973Z,14.90
2018-04-22T00:51:29.347Z,17.57
2018-04-22T00:54:08.767Z,23.87
2018-04-22T00:56:36.394Z,26.70
2018-04-22T00:59:03.986Z,23.07
2018-04-22T01:01:31.573Z,25.07
2018-04-22T01:03:59.225Z,18.87
2018-04-22T01:06:26.823Z,34.93
2018-04-22T01:08:54.426Z,33.10
2018-04-22T01:11:22.076Z,23.30
2018-04-22T01:13:49.684Z,23.67
2018-04-22T01:16:18.052Z,24.87
2018-04-22T01:18:46.426Z,21.70
2018-04-22T01:21:14.074Z,31.33
2018-04-22T01:23:41.678Z,27.67
2018-04-22T01:26:09.283Z,27.03
2018-04-22T01:28:36.874Z,22.57
2018-04-22T01:31:05.234Z,24.07
2018-04-22T01:33:32.840Z,30.30
2018-04-22T01:36:00.433Z,26.17
2018-04-22T01:38:28.022Z,23.73
2018-04-22T01:40:55.645Z,32.30
2018-04-22T01:43:23.244Z,26.23
2018-04-22T01:45:50.844Z,32.67
2018-04-22T01:48:18.444Z,22.97
2018-04-22T01:50:46.033Z,24.83
2018-04-22T01:53:14.406Z,26.77
2018-04-22T01:55:42.057Z,20.30
2018-04-22T01:58:09.661Z,33.37
2018-04-22T02:00:37.261Z,25.37
2018-04-22T02:03:04.900Z,28.10
2018-04-22T02:05:32.503Z,29.27
2018-04-22T02:08:00.103Z,28.70
2018-04-22T02:10:27.706Z,25.53
2018-04-22T02:12:55.300Z,26.33
2018-04-22T02:15:23.674Z,19.63
2018-04-22T02:17:51.318Z,25.70
2018-04-22T02:20:18.926Z,28.13
2018-04-22T02:22:46.539Z,25.30
2018-04-22T02:25:14.177Z,23.07
2018-04-22T02:27:41.787Z,27.37
2018-04-22T02:30:10.148Z,26.83
2018-04-22T02:32:37.772Z,31.45
2018-04-22T02:35:05.383Z,30.13
2018-04-22T02:37:33.738Z,21.47
2018-04-22T02:40:01.360Z,27.37
2018-04-22T02:42:28.972Z,27.93
2018-04-22T02:44:57.327Z,25.20
2018-04-22T02:47:24.947Z,31.00
2018-04-22T02:49:52.554Z,26.63
2018-04-22T02:52:20.160Z,26.80
2018-04-22T02:54:47.786Z,27.00
2018-04-22T02:57:16.149Z,31.53
2018-04-22T02:59:43.757Z,25.87
2018-04-22T03:02:11.457Z,24.73
2018-04-22T03:04:39.058Z,32.47
2018-04-22T03:07:07.420Z,25.33
2018-04-22T03:09:35.026Z,23.00
2018-04-22T03:12:02.634Z,25.97
2018-04-22T03:14:30.248Z,23.03
2018-04-22T03:16:57.850Z,22.80
2018-04-22T03:19:25.477Z,22.17
2018-04-22T03:21:53.074Z,22.40
2018-04-22T03:24:20.685Z,24.87
2018-04-22T03:26:48.279Z,25.50
2018-04-22T03:29:15.888Z,26.50
2018-04-22T03:31:43.502Z,25.83
2018-04-22T03:34:11.116Z,29.33
2018-04-22T03:36:38.722Z,26.23
2018-04-22T03:39:06.358Z,23.90
2018-04-22T03:41:33.950Z,24.60
2018-04-22T03:44:01.557Z,27.23
2018-04-22T03:46:29.181Z,23.63
2018-04-22T03:48:56.793Z,23.13
2018-04-22T03:51:24.399Z,31.60
2018-04-22T03:53:52.008Z,26.90
2018-04-22T03:56:19.594Z,27.67
2018-04-22T03:58:47.192Z,28.03
2018-04-22T04:01:15.617Z,27.37
2018-04-22T04:03:43.214Z,29.30
2018-04-22T04:06:10.815Z,26.33
2018-04-22T04:08:38.487Z,24.47
2018-04-22T04:11:06.079Z,22.77
2018-04-22T04:13:33.677Z,32.60
2018-04-22T04:16:02.084Z,25.67
2018-04-22T04:21:50.993Z,22.47
2018-04-22T04:24:40.081Z,31.43
2018-04-22T04:27:19.478Z,25.43
2018-04-22T04:29:47.073Z,27.93
2018-04-22T04:32:14.674Z,35.70
2018-04-22T04:34:42.274Z,28.10
2018-04-22T04:37:09.875Z,33.13
2018-04-22T04:39:37.476Z,26.40
2018-04-22T04:42:05.098Z,27.60
2018-04-22T04:44:33.461Z,23.43
2018-04-22T04:47:01.838Z,26.23
2018-04-22T04:49:29.457Z,27.87
2018-04-22T04:51:57.055Z,28.43
2018-04-22T04:54:24.714Z,36.07
2018-04-22T04:56:52.320Z,26.13
2018-04-22T04:59:19.917Z,28.07
2018-04-22T05:01:47.516Z,28.50
2018-04-22T05:04:15.126Z,29.73
2018-04-22T05:06:42.728Z,26.30
2018-04-22T05:09:10.322Z,23.10
2018-04-22T05:11:37.931Z,25.30
2018-04-22T05:14:05.529Z,31.23
2018-04-22T05:16:33.124Z,26.83
2018-04-22T05:19:00.744Z,26.30
2018-04-22T05:21:29.105Z,25.20
2018-04-22T05:23:56.706Z,28.73
2018-04-22T05:26:24.341Z,27.20
2018-04-22T05:28:52.723Z,27.43
2018-04-22T05:31:20.367Z,24.27
2018-04-22T05:33:47.989Z,24.07
2018-04-22T05:36:15.590Z,24.40
2018-04-22T05:38:43.202Z,25.83
2018-04-22T05:41:10.819Z,25.50
2018-04-22T05:43:38.411Z,24.63
2018-04-22T05:46:06.016Z,29.17
2018-04-22T05:48:33.669Z,26.57
2018-04-22T05:51:01.286Z,26.60
2018-04-22T05:53:28.907Z,26.67
2018-04-22T05:55:57.327Z,23.60
2018-04-22T05:58:24.946Z,25.57
2018-04-22T06:00:52.541Z,21.23
2018-04-22T06:03:20.160Z,24.37
2018-04-22T06:05:47.761Z,20.23
2018-04-22T06:08:15.359Z,21.77
2018-04-22T06:10:42.962Z,26.77
2018-04-22T06:13:10.566Z,23.73
2018-04-22T06:15:38.180Z,23.70
2018-04-22T06:18:05.834Z,23.93
2018-04-22T06:20:34.200Z,23.70
2018-04-22T06:23:01.804Z,20.53
2018-04-22T06:25:29.410Z,20.10
2018-04-22T06:27:57.011Z,26.47
2018-04-22T06:30:24.613Z,18.60
2018-04-22T06:32:52.256Z,22.23
2018-04-22T06:35:19.862Z,19.67
2018-04-22T06:37:47.462Z,21.93
2018-04-22T06:40:15.167Z,25.70
2018-04-22T06:42:42.748Z,25.23
2018-04-22T06:45:10.360Z,21.40
2018-04-22T06:47:37.969Z,25.70
2018-04-22T06:50:05.605Z,21.80
2018-04-22T06:52:33.214Z,25.00
2018-04-22T06:55:00.827Z,24.47
2018-04-22T06:57:28.434Z,22.03
2018-04-22T06:59:57.182Z,21.33
2018-04-22T07:02:24.820Z,22.77
2018-04-22T07:04:52.431Z,20.03
2018-04-22T07:07:20.801Z,16.70
2018-04-22T07:09:49.182Z,20.67
2018-04-22T07:12:17.546Z,16.77
2018-04-22T07:14:45.151Z,17.30
2018-04-22T07:17:12.778Z,16.77
2018-04-22T07:19:40.414Z,16.23
2018-04-22T07:22:08.019Z,13.27
2018-04-22T07:24:35.682Z,17.00
2018-04-22T07:27:03.294Z,15.33
2018-04-22T07:29:30.911Z,13.33
2018-04-22T07:31:58.552Z,12.00
2018-04-22T07:34:26.181Z,13.00
2018-04-22T07:36:55.137Z,15.97
2018-04-22T07:39:22.800Z,15.60
2018-04-22T07:41:50.455Z,15.20
2018-04-22T07:44:18.066Z,18.43
2018-04-22T07:46:45.676Z,16.20
2018-04-22T07:49:14.496Z,16.57
2018-04-22T07:51:42.094Z,19.60
2018-04-22T07:54:10.475Z,16.10
2018-04-22T07:56:38.881Z,18.53
2018-04-22T07:59:06.485Z,17.47
2018-04-22T08:01:34.243Z,19.73
2018-04-22T08:04:05.189Z,13.17
2018-04-22T08:06:32.790Z,14.43
2018-04-22T08:09:00.466Z,11.83
2018-04-22T08:11:28.844Z,14.13
2018-04-22T08:13:56.440Z,18.97
2018-04-22T08:16:24.099Z,15.47
2018-04-22T08:18:51.710Z,12.43
2018-04-22T08:21:19.382Z,16.60
2018-04-22T08:23:47.081Z,16.47
2018-04-22T08:26:14.714Z,13.30
2018-04-22T08:28:42.314Z,15.17
2018-04-22T08:31:09.921Z,17.00
2018-04-22T08:33:37.619Z,13.43
2018-04-22T08:36:05.299Z,16.30
2018-04-22T08:38:32.915Z,17.87
2018-04-22T08:41:00.530Z,15.80
2018-04-22T08:43:28.279Z,14.63
2018-04-22T08:45:55.906Z,16.73
2018-04-22T08:48:23.514Z,12.57
2018-04-22T08:50:51.259Z,16.37
2018-04-22T08:53:18.882Z,15.87
2018-04-22T08:55:46.515Z,13.30
2018-04-22T08:58:14.130Z,14.77
2018-04-22T09:00:41.768Z,17.13
2018-04-22T09:03:09.403Z,11.57
2018-04-22T09:05:37.123Z,16.90
2018-04-22T09:08:04.771Z,10.60
2018-04-22T09:10:32.406Z,13.33
2018-04-22T09:13:00.040Z,14.13
2018-04-22T09:15:28.414Z,15.13
2018-04-22T09:17:56.792Z,18.23
2018-04-22T09:20:24.414Z,15.50
2018-04-22T09:22:52.094Z,13.97
2018-04-22T09:25:19.715Z,16.57
2018-04-22T09:27:47.319Z,20.83
2018-04-22T09:30:14.962Z,16.80
2018-04-22T09:32:42.566Z,12.37
2018-04-22T09:35:10.928Z,11.97
2018-04-22T09:37:39.311Z,13.83
2018-04-22T09:40:06.950Z,14.83
2018-04-22T09:42:34.549Z,16.50
2018-04-22T09:45:02.167Z,16.37
2018-04-22T09:47:29.772Z,15.40
2018-04-22T09:49:57.750Z,13.13
2018-04-22T09:52:25.346Z,15.87
2018-04-22T09:54:52.947Z,12.87
2018-04-22T09:57:20.542Z,15.90
2018-04-22T09:59:48.177Z,14.17
2018-04-22T10:02:15.796Z,16.53
2018-04-22T10:04:47.326Z,13.47
2018-04-22T10:07:15.705Z,15.00
2018-04-22T10:09:43.301Z,17.73
2018-04-22T10:12:10.901Z,14.13
2018-04-22T10:14:38.518Z,10.57
2018-04-22T10:17:06.120Z,14.23
2018-04-22T10:19:33.760Z,13.93
2018-04-22T10:22:01.385Z,13.03
2018-04-22T10:24:28.992Z,13.60
2018-04-22T10:26:56.594Z,14.37
2018-04-22T10:29:24.221Z,12.17
2018-04-22T10:31:51.818Z,15.73
2018-04-22T10:34:19.466Z,13.20
2018-04-22T10:36:47.065Z,12.67
2018-04-22T10:39:14.665Z,14.83
2018-04-22T10:41:42.270Z,16.60
2018-04-22T10:44:11.253Z,13.17
2018-04-22T10:46:38.880Z,14.97
2018-04-22T10:49:06.497Z,15.70
2018-04-22T10:51:34.162Z,13.23
2018-04-22T10:54:01.758Z,17.30
2018-04-22T10:56:29.355Z,12.87
2018-04-22T10:58:56.974Z,13.10
2018-04-22T11:01:24.578Z,15.53
2018-04-22T11:03:52.228Z,14.50
2018-04-22T11:06:19.842Z,12.73
2018-04-22T11:08:47.469Z,11.97
2018-04-22T11:11:15.070Z,14.77
2018-04-22T11:13:42.691Z,12.83
2018-04-22T11:16:10.294Z,14.33
2018-04-22T11:18:37.951Z,15.30
2018-04-22T11:21:06.341Z,12.60
2018-04-22T11:23:33.949Z,9.43
2018-04-22T11:26:01.551Z,13.43
2018-04-22T11:28:29.181Z,13.00
2018-04-22T11:30:57.556Z,15.20
2018-04-22T11:33:25.160Z,13.33
2018-04-22T11:35:52.784Z,14.10
2018-04-22T11:38:20.399Z,12.90
2018-04-22T11:40:48.012Z,10.80
2018-04-22T11:43:15.650Z,11.43
2018-04-22T11:45:43.253Z,9.60
2018-04-22T11:48:10.857Z,13.43
2018-04-22T11:50:38.502Z,11.63
2018-04-22T11:53:06.110Z,10.40
2018-04-22T11:55:33.749Z,10.70
2018-04-22T11:58:01.380Z,11.03
2018-04-22T12:00:28.978Z,12.67
2018-04-22T12:02:56.570Z,9.97
2018-04-22T12:05:24.959Z,11.73
2018-04-22T12:07:52.558Z,12.50
2018-04-22T12:10:20.161Z,11.20
2018-04-22T12:12:48.542Z,11.77
2018-04-22T12:15:16.973Z,16.67
2018-04-22T12:17:44.568Z,14.83
2018-04-22T12:20:12.246Z,13.63
2018-04-22T12:22:40.620Z,12.97
2018-04-22T12:25:08.984Z,14.77
2018-04-22T12:27:36.598Z,14.33
2018-04-22T12:30:04.253Z,10.13
2018-04-22T12:32:31.878Z,11.27
2018-04-22T12:35:00.251Z,12.00
2018-04-22T12:37:28.991Z,13.90
2018-04-22T12:39:56.585Z,15.43
2018-04-22T12:42:24.199Z,13.43
2018-04-22T12:44:51.795Z,12.07
2018-04-22T12:47:20.486Z,12.47
2018-04-22T12:49:48.105Z,9.87
2018-04-22T12:52:15.712Z,10.70
2018-04-22T12:54:43.314Z,10.47
2018-04-22T12:57:10.950Z,8.93
2018-04-22T12:59:39.547Z,10.03
2018-04-22T13:02:07.162Z,10.27
2018-04-22T13:04:34.806Z,9.47
2018-04-22T13:07:02.406Z,7.33
2018-04-22T13:09:30.776Z,8.83
2018-04-22T13:11:58.389Z,9.33
2018-04-22T13:14:26.031Z,8.87
2018-04-22T13:16:53.631Z,8.40
2018-04-22T13:19:21.243Z,9.73
2018-04-22T13:21:48.846Z,8.50
2018-04-22T13:24:16.437Z,6.93
2018-04-22T13:26:44.819Z,8.77
2018-04-22T13:29:13.186Z,8.77
2018-04-22T13:31:40.831Z,9.63
2018-04-22T13:34:08.587Z,8.53
2018-04-22T13:36:36.196Z,7.53
2018-04-22T13:39:05.458Z,9.47
2018-04-22T13:41:33.117Z,8.23
2018-04-22T13:44:00.719Z,9.33
2018-04-22T13:46:29.079Z,8.77
2018-04-22T13:48:56.691Z,8.43
2018-04-22T13:51:24.298Z,8.97
2018-04-22T13:53:51.898Z,7.87
2018-04-22T13:56:19.502Z,8.67
2018-04-22T13:58:47.154Z,10.07
2018-04-22T14:01:14.792Z,8.47
2018-04-22T14:03:42.408Z,8.37
2018-04-22T14:06:10.776Z,9.47
2018-04-22T14:08:38.379Z,9.83
2018-04-22T14:11:05.989Z,7.80
2018-04-22T14:13:33.654Z,7.77
2018-04-22T14:16:01.477Z,10.97
2018-04-22T14:18:37.495Z,8.37
2018-04-22T14:21:09.292Z,6.13
2018-04-22T14:23:51.238Z,5.10
2018-04-22T14:26:28.864Z,6.47
2018-04-22T14:34:39.075Z,5.67
2018-04-22T14:37:06.786Z,5.80
2018-04-22T14:39:34.428Z,5.10
2018-04-22T14:42:02.078Z,5.53
2018-04-22T14:44:41.354Z,5.47
2018-04-22T14:47:09.726Z,6.87
2018-04-22T14:49:37.355Z,6.93
2018-04-22T14:52:04.987Z,6.77
2018-04-22T14:54:32.601Z,8.07
2018-04-22T14:57:00.966Z,5.37
2018-04-22T14:59:28.838Z,6.37
2018-04-22T15:01:56.498Z,11.00
2018-04-22T15:04:24.118Z,32.03
2018-04-22T15:06:51.733Z,12.77
2018-04-22T15:09:20.114Z,12.43
2018-04-22T15:11:48.598Z,32.50
2018-04-22T15:14:16.263Z,16.53
2018-04-22T15:16:44.634Z,9.90
2018-04-22T15:19:12.998Z,9.33
2018-04-22T15:21:40.597Z,9.67
2018-04-22T15:24:08.227Z,8.70
2018-04-22T15:26:35.882Z,8.77
2018-04-22T15:29:03.502Z,7.90
2018-04-22T15:31:31.137Z,11.67
2018-04-22T15:33:58.762Z,8.53
2018-04-22T15:36:26.375Z,40.33
2018-04-22T15:38:54.147Z,11.83
2018-04-22T15:41:21.766Z,16.33
2018-04-22T15:43:49.902Z,88.83
2018-04-22T15:46:17.565Z,8.77
2018-04-22T15:48:45.182Z,28.83
2018-04-22T15:51:12.802Z,19.90
2018-04-22T15:53:40.466Z,9.73
2018-04-22T15:56:08.095Z,35.77
2018-04-22T15:58:35.701Z,20.03
2018-04-22T16:01:04.094Z,43.33
2018-04-22T16:03:31.703Z,15.70
2018-04-22T16:05:59.320Z,9.30
2018-04-22T16:08:27.762Z,8.53
2018-04-22T16:10:55.416Z,10.23
2018-04-22T16:13:23.035Z,9.27
2018-04-22T16:15:50.658Z,8.80
2018-04-22T16:18:18.299Z,9.80
2018-04-22T16:20:45.894Z,8.80
2018-04-22T16:23:14.280Z,10.30
2018-04-22T16:25:41.907Z,13.90
2018-04-22T16:28:09.515Z,71.03
2018-04-22T16:30:37.130Z,16.20
2018-04-22T16:33:04.756Z,8.83
2018-04-22T16:35:32.368Z,12.20
2018-04-22T16:38:00.025Z,7.13
2018-04-22T16:40:27.646Z,9.67
2018-04-22T16:42:55.259Z,7.73
2018-04-22T16:45:24.016Z,8.83
2018-04-22T16:47:51.686Z,11.07
2018-04-22T16:50:20.047Z,9.30
2018-04-22T16:52:47.737Z,9.20
2018-04-22T16:55:16.148Z,11.47
2018-04-22T16:57:43.786Z,9.47
2018-04-22T17:00:11.413Z,13.00
2018-04-22T17:02:39.039Z,13.50
2018-04-22T17:05:06.660Z,13.30
2018-04-22T17:07:35.051Z,15.23
2018-04-22T17:10:04.007Z,14.60
2018-04-22T17:12:32.777Z,11.67
2018-04-22T17:15:00.425Z,15.83
2018-04-22T17:17:28.826Z,14.20
2018-04-22T17:19:56.458Z,13.83
2018-04-22T17:22:25.227Z,13.33
2018-04-22T17:24:53.064Z,12.97
2018-04-22T17:27:20.672Z,13.43
2018-04-22T17:29:48.296Z,11.00
2018-04-22T17:32:15.946Z,11.50
2018-04-22T17:34:44.383Z,12.30
2018-04-22T17:37:12.022Z,13.50
2018-04-22T17:39:39.658Z,16.43
2018-04-22T17:42:07.292Z,18.00
2018-04-22T17:44:34.929Z,14.70
2018-04-22T17:47:02.525Z,15.13
2018-04-22T17:49:30.919Z,15.17
2018-04-22T17:51:59.317Z,18.47
2018-04-22T17:54:26.921Z,18.27
2018-04-22T17:56:54.601Z,15.93
2018-04-22T17:59:22.988Z,15.53
2018-04-22T18:01:51.351Z,15.47
2018-04-22T18:04:18.971Z,16.27
2018-04-22T18:06:46.611Z,11.97
2018-04-22T18:09:14.224Z,11.97
2018-04-22T18:11:41.821Z,9.60
2018-04-22T18:14:09.487Z,8.77
2018-04-22T18:16:37.121Z,11.37
2018-04-22T18:19:04.750Z,10.23
2018-04-22T18:21:32.382Z,9.53
2018-04-22T18:23:59.986Z,10.33
2018-04-22T18:26:27.950Z,10.53
2018-04-22T18:28:56.292Z,10.87
2018-04-22T18:31:23.897Z,8.90
2018-04-22T18:33:51.484Z,9.23
2018-04-22T18:36:19.113Z,7.73
2018-04-22T18:38:46.714Z,9.07
2018-04-22T18:41:14.314Z,11.30
2018-04-22T18:43:41.938Z,11.23
2018-04-22T18:46:09.537Z,9.70
2018-04-22T18:48:37.131Z,11.33
2018-04-22T18:51:05.533Z,10.07
2018-04-22T18:53:33.134Z,10.53
2018-04-22T18:56:00.767Z,11.60
2018-04-22T18:58:28.391Z,10.37
2018-04-22T19:00:56.107Z,8.93
2018-04-22T19:03:23.698Z,12.77
2018-04-22T19:05:51.309Z,8.13
2018-04-22T19:08:19.694Z,12.50
2018-04-22T19:10:47.342Z,11.87
2018-04-22T19:13:14.967Z,12.33
2018-04-22T19:15:42.679Z,11.17
2018-04-22T19:18:10.313Z,13.53
2018-04-22T19:20:38.678Z,13.67
2018-04-22T19:23:06.326Z,17.13
2018-04-22T19:25:33.924Z,16.70
2018-04-22T19:28:01.586Z,21.20
2018-04-22T19:30:29.184Z,16.50
2018-04-22T19:32:56.903Z,14.80
2018-04-22T19:35:24.541Z,16.73
2018-04-22T19:37:52.930Z,16.27
2018-04-22T19:40:21.314Z,14.37
2018-04-22T19:42:49.001Z,15.77
2018-04-22T19:45:16.679Z,15.37
2018-04-22T19:47:44.278Z,12.83
2018-04-22T19:50:11.954Z,15.63
2018-04-22T19:52:40.343Z,14.87
2018-04-22T19:55:07.933Z,14.77
2018-04-22T19:57:35.595Z,14.40
2018-04-22T20:00:03.226Z,15.23
2018-04-22T20:02:30.876Z,15.37
2018-04-22T20:04:58.538Z,15.33
2018-04-22T20:07:26.913Z,17.77
2018-04-22T20:09:55.301Z,14.20
2018-04-22T20:12:23.703Z,17.10
2018-04-22T20:14:51.361Z,16.13
2018-04-22T20:17:19.024Z,14.17
2018-04-22T20:19:46.724Z,13.70
2018-04-22T20:22:14.321Z,16.13
2018-04-22T20:24:41.935Z,15.37
2018-04-22T20:27:09.609Z,14.33
2018-04-22T20:29:37.254Z,14.33
2018-04-22T20:32:04.848Z,12.20
2018-04-22T20:34:33.227Z,16.20
2018-04-22T20:37:01.614Z,12.87
2018-04-22T20:39:29.998Z,16.53
2018-04-22T20:41:58.391Z,16.37
2018-04-22T20:44:26.077Z,13.53
2018-04-22T20:46:53.725Z,12.37
2018-04-22T20:49:21.371Z,11.57
2018-04-22T20:51:49.025Z,12.57
2018-04-22T20:54:16.646Z,11.03
2018-04-22T20:56:44.253Z,11.17
2018-04-22T20:59:11.847Z,12.03
2018-04-22T21:01:39.500Z,10.83
2018-04-22T21:04:07.150Z,13.87
2018-04-22T21:06:34.813Z,10.63
2018-04-22T21:09:02.595Z,13.17
2018-04-22T21:11:30.320Z,10.87
2018-04-22T21:13:57.997Z,11.50
2018-04-22T21:16:25.646Z,11.87
2018-04-22T21:18:53.278Z,10.43
2018-04-22T21:21:20.876Z,12.03
2018-04-22T21:23:48.462Z,11.33
2018-04-22T21:26:16.105Z,13.27
2018-04-22T21:28:43.734Z,12.50
2018-04-22T21:31:12.152Z,11.50
2018-04-22T21:33:39.842Z,13.27
2018-04-22T21:36:07.438Z,12.50
2018-04-22T21:38:35.801Z,12.57
2018-04-22T21:41:04.254Z,12.03
2018-04-22T21:43:31.858Z,9.83
2018-04-22T21:46:00.218Z,10.60
2018-04-22T21:48:28.587Z,7.87
2018-04-22T21:50:56.182Z,7.43
2018-04-22T21:53:23.775Z,7.77
2018-04-22T21:55:51.430Z,6.83
2018-04-22T21:58:19.022Z,8.50
2018-04-22T22:00:46.614Z,6.63
2018-04-22T22:03:14.230Z,7.50
2018-04-22T22:05:41.836Z,5.97
2018-04-22T22:08:09.433Z,9.00
2018-04-22T22:10:37.039Z,8.20
2018-04-22T22:13:04.625Z,7.07
2018-04-22T22:15:32.221Z,7.97
2018-04-22T22:17:59.823Z,5.23
2018-04-22T22:20:27.410Z,6.03
2018-04-22T22:22:55.002Z,6.83
2018-04-22T22:25:23.414Z,5.97
2018-04-22T22:27:51.040Z,6.20
2018-04-22T22:30:18.666Z,5.30
2018-04-22T22:32:46.272Z,5.43
2018-04-22T22:35:13.857Z,5.70
2018-04-22T22:37:41.477Z,6.70
2018-04-22T22:40:09.868Z,8.60
2018-04-22T22:42:37.459Z,4.40
2018-04-22T22:45:05.048Z,3.93
2018-04-22T22:47:32.718Z,3.80
2018-04-22T22:50:00.327Z,4.47
2018-04-22T22:52:27.955Z,5.53
2018-04-22T22:54:55.574Z,4.40
2018-04-22T22:57:23.937Z,4.40
2018-04-22T22:59:51.526Z,4.57
2018-04-22T23:02:19.135Z,6.90
2018-04-22T23:04:46.723Z,4.03
2018-04-22T23:07:14.346Z,5.93
2018-04-22T23:09:42.026Z,4.17
2018-04-22T23:12:09.711Z,4.10
2018-04-22T23:14:37.282Z,4.47
2018-04-22T23:17:04.933Z,4.53
2018-04-22T23:19:32.542Z,2.97
2018-04-22T23:22:00.135Z,6.40
2018-04-22T23:24:28.513Z,3.80
2018-04-22T23:26:56.123Z,4.47
2018-04-22T23:29:23.761Z,4.27
2018-04-22T23:31:51.423Z,3.13
2018-04-22T23:34:19.073Z,3.60
2018-04-22T23:36:46.678Z,5.00
2018-04-22T23:39:14.301Z,3.33
2018-04-22T23:41:41.956Z,2.67
2018-04-22T23:44:09.585Z,3.30
2018-04-22T23:46:37.194Z,1.90
2018-04-22T23:49:04.786Z,2.73
2018-04-22T23:51:32.375Z,2.50
2018-04-22T23:54:00.047Z,5.27
2018-04-22T23:56:28.406Z,2.60
2018-04-22T23:58:56.128Z,2.63
